sensor_id;sensor_type;location;lat;lon;timestamp;P1;durP1;ratioP1;P2;durP2;ratioP2
59418;SDS011;45224;50.904;6.038;2023-09-08T00:00:50;4.78;;;3.70;;
59418;SDS011;45224;50.904;6.038;2023-09-08T00:02:21;8.77;;;4.00;;
59418;SDS011;45224;50.904;6.038;2023-09-08T00:03:51;4.82;;;3.65;;
59418;SDS011;45224;50.904;6.038;2023-09-08T00:05:21;5.55;;;3.85;;
59418;SDS011;45224;50.904;6.038;2023-09-08T00:06:52;4.95;;;3.63;;
59418;SDS011;45224;50.904;6.038;2023-09-08T00:08:22;4.85;;;3.40;;
59418;SDS011;45224;50.904;6.038;2023-09-08T00:09:54;4.07;;;3.17;;
59418;SDS011;45224;50.904;6.038;2023-09-08T00:11:24;4.38;;;3.60;;
59418;SDS011;45224;50.904;6.038;2023-09-08T00:12:55;5.32;;;3.60;;
59418;SDS011;45224;50.904;6.038;2023-09-08T00:14:25;4.30;;;3.47;;
59418;SDS011;45224;50.904;6.038;2023-09-08T00:15:56;6.35;;;4.00;;
59418;SDS011;45224;50.904;6.038;2023-09-08T00:17:26;6.72;;;3.80;;
59418;SDS011;45224;50.904;6.038;2023-09-08T00:18:57;6.03;;;3.97;;
59418;SDS011;45224;50.904;6.038;2023-09-08T00:20:28;6.22;;;3.83;;
59418;SDS011;45224;50.904;6.038;2023-09-08T00:21:59;4.72;;;3.65;;
59418;SDS011;45224;50.904;6.038;2023-09-08T00:23:30;4.82;;;3.90;;
59418;SDS011;45224;50.904;6.038;2023-09-08T00:25:01;5.13;;;4.22;;
59418;SDS011;45224;50.904;6.038;2023-09-08T00:26:32;6.80;;;3.55;;
59418;SDS011;45224;50.904;6.038;2023-09-08T00:28:03;5.50;;;3.53;;
59418;SDS011;45224;50.904;6.038;2023-09-08T00:29:33;8.00;;;4.00;;
59418;SDS011;45224;50.904;6.038;2023-09-08T00:31:04;5.47;;;3.53;;
59418;SDS011;45224;50.904;6.038;2023-09-08T00:32:35;6.50;;;3.85;;
59418;SDS011;45224;50.904;6.038;2023-09-08T00:34:05;4.88;;;3.60;;
59418;SDS011;45224;50.904;6.038;2023-09-08T00:35:36;9.00;;;3.92;;
59418;SDS011;45224;50.904;6.038;2023-09-08T00:37:07;5.47;;;3.20;;
59418;SDS011;45224;50.904;6.038;2023-09-08T00:38:39;6.50;;;3.70;;
59418;SDS011;45224;50.904;6.038;2023-09-08T00:40:09;4.13;;;3.33;;
59418;SDS011;45224;50.904;6.038;2023-09-08T00:41:40;5.75;;;3.85;;
59418;SDS011;45224;50.904;6.038;2023-09-08T00:43:11;5.53;;;3.67;;
59418;SDS011;45224;50.904;6.038;2023-09-08T00:44:41;6.93;;;3.38;;
59418;SDS011;45224;50.904;6.038;2023-09-08T00:46:12;4.63;;;3.47;;
59418;SDS011;45224;50.904;6.038;2023-09-08T00:47:42;5.10;;;3.60;;
59418;SDS011;45224;50.904;6.038;2023-09-08T00:49:13;6.68;;;3.80;;
59418;SDS011;45224;50.904;6.038;2023-09-08T00:50:43;7.07;;;3.42;;
59418;SDS011;45224;50.904;6.038;2023-09-08T00:52:15;6.63;;;3.60;;
59418;SDS011;45224;50.904;6.038;2023-09-08T00:53:45;5.93;;;3.85;;
59418;SDS011;45224;50.904;6.038;2023-09-08T00:55:15;5.15;;;3.70;;
59418;SDS011;45224;50.904;6.038;2023-09-08T00:56:46;5.30;;;3.72;;
59418;SDS011;45224;50.904;6.038;2023-09-08T00:59:49;6.70;;;3.17;;
59418;SDS011;45224;50.904;6.038;2023-09-08T01:01:20;5.05;;;3.53;;
59418;SDS011;45224;50.904;6.038;2023-09-08T01:02:50;5.38;;;4.10;;
59418;SDS011;45224;50.904;6.038;2023-09-08T01:04:21;6.53;;;3.50;;
59418;SDS011;45224;50.904;6.038;2023-09-08T01:05:51;6.05;;;3.67;;
59418;SDS011;45224;50.904;6.038;2023-09-08T01:07:22;5.82;;;3.67;;
59418;SDS011;45224;50.904;6.038;2023-09-08T01:08:53;7.30;;;3.20;;
59418;SDS011;45224;50.904;6.038;2023-09-08T01:10:25;6.30;;;3.80;;
59418;SDS011;45224;50.904;6.038;2023-09-08T01:11:55;4.97;;;3.47;;
59418;SDS011;45224;50.904;6.038;2023-09-08T01:13:31;7.03;;;3.85;;
59418;SDS011;45224;50.904;6.038;2023-09-08T01:15:02;8.35;;;3.55;;
59418;SDS011;45224;50.904;6.038;2023-09-08T01:16:33;7.88;;;3.58;;
59418;SDS011;45224;50.904;6.038;2023-09-08T01:18:03;4.43;;;3.42;;
59418;SDS011;45224;50.904;6.038;2023-09-08T01:19:34;5.72;;;3.55;;
59418;SDS011;45224;50.904;6.038;2023-09-08T01:21:11;6.03;;;3.60;;
59418;SDS011;45224;50.904;6.038;2023-09-08T01:26:25;5.78;;;3.40;;
59418;SDS011;45224;50.904;6.038;2023-09-08T01:28:00;6.75;;;3.60;;
59418;SDS011;45224;50.904;6.038;2023-09-08T01:29:31;4.80;;;3.80;;
59418;SDS011;45224;50.904;6.038;2023-09-08T01:31:02;5.00;;;3.60;;
59418;SDS011;45224;50.904;6.038;2023-09-08T01:32:34;4.35;;;3.45;;
59418;SDS011;45224;50.904;6.038;2023-09-08T01:34:05;5.35;;;3.78;;
59418;SDS011;45224;50.904;6.038;2023-09-08T01:35:37;4.35;;;3.30;;
59418;SDS011;45224;50.904;6.038;2023-09-08T01:37:08;5.38;;;3.50;;
59418;SDS011;45224;50.904;6.038;2023-09-08T01:38:38;4.43;;;3.58;;
59418;SDS011;45224;50.904;6.038;2023-09-08T01:40:09;7.35;;;3.67;;
59418;SDS011;45224;50.904;6.038;2023-09-08T01:41:40;4.97;;;3.90;;
59418;SDS011;45224;50.904;6.038;2023-09-08T01:43:11;5.97;;;3.60;;
59418;SDS011;45224;50.904;6.038;2023-09-08T01:44:41;5.00;;;3.60;;
59418;SDS011;45224;50.904;6.038;2023-09-08T01:46:12;3.83;;;3.42;;
59418;SDS011;45224;50.904;6.038;2023-09-08T01:47:43;6.18;;;3.40;;
59418;SDS011;45224;50.904;6.038;2023-09-08T01:49:13;5.70;;;3.53;;
59418;SDS011;45224;50.904;6.038;2023-09-08T01:50:44;6.05;;;3.63;;
59418;SDS011;45224;50.904;6.038;2023-09-08T01:52:17;6.70;;;3.35;;
59418;SDS011;45224;50.904;6.038;2023-09-08T01:53:47;4.25;;;3.08;;
59418;SDS011;45224;50.904;6.038;2023-09-08T01:55:18;4.88;;;3.60;;
59418;SDS011;45224;50.904;6.038;2023-09-08T01:56:48;3.72;;;3.33;;
59418;SDS011;45224;50.904;6.038;2023-09-08T01:58:19;5.47;;;3.38;;
59418;SDS011;45224;50.904;6.038;2023-09-08T01:59:49;4.85;;;3.75;;
59418;SDS011;45224;50.904;6.038;2023-09-08T02:01:20;4.10;;;3.70;;
59418;SDS011;45224;50.904;6.038;2023-09-08T02:02:50;6.38;;;3.70;;
59418;SDS011;45224;50.904;6.038;2023-09-08T02:04:21;6.85;;;3.83;;
59418;SDS011;45224;50.904;6.038;2023-09-08T02:05:51;7.20;;;3.70;;
59418;SDS011;45224;50.904;6.038;2023-09-08T02:07:22;6.75;;;3.38;;
59418;SDS011;45224;50.904;6.038;2023-09-08T02:08:55;7.35;;;3.60;;
59418;SDS011;45224;50.904;6.038;2023-09-08T02:10:25;7.60;;;3.58;;
59418;SDS011;45224;50.904;6.038;2023-09-08T02:11:56;5.60;;;3.60;;
59418;SDS011;45224;50.904;6.038;2023-09-08T02:13:26;5.78;;;3.60;;
59418;SDS011;45224;50.904;6.038;2023-09-08T02:14:57;5.47;;;3.38;;
59418;SDS011;45224;50.904;6.038;2023-09-08T02:16:27;5.20;;;3.95;;
59418;SDS011;45224;50.904;6.038;2023-09-08T02:17:58;5.88;;;4.10;;
59418;SDS011;45224;50.904;6.038;2023-09-08T02:19:29;6.25;;;4.20;;
59418;SDS011;45224;50.904;6.038;2023-09-08T02:20:59;5.30;;;3.65;;
59418;SDS011;45224;50.904;6.038;2023-09-08T02:22:30;7.30;;;3.80;;
59418;SDS011;45224;50.904;6.038;2023-09-08T02:24:00;5.88;;;3.60;;
59418;SDS011;45224;50.904;6.038;2023-09-08T02:25:31;7.53;;;4.10;;
59418;SDS011;45224;50.904;6.038;2023-09-08T02:27:01;7.43;;;4.15;;
59418;SDS011;45224;50.904;6.038;2023-09-08T02:28:33;5.03;;;3.92;;
59418;SDS011;45224;50.904;6.038;2023-09-08T02:30:04;6.82;;;4.65;;
59418;SDS011;45224;50.904;6.038;2023-09-08T02:31:35;6.30;;;4.30;;
59418;SDS011;45224;50.904;6.038;2023-09-08T02:33:08;6.40;;;4.35;;
59418;SDS011;45224;50.904;6.038;2023-09-08T02:34:39;5.95;;;4.30;;
59418;SDS011;45224;50.904;6.038;2023-09-08T02:36:11;5.70;;;4.18;;
59418;SDS011;45224;50.904;6.038;2023-09-08T02:37:43;5.97;;;4.18;;
59418;SDS011;45224;50.904;6.038;2023-09-08T02:39:14;5.38;;;4.00;;
59418;SDS011;45224;50.904;6.038;2023-09-08T02:40:44;6.07;;;4.05;;
59418;SDS011;45224;50.904;6.038;2023-09-08T02:42:16;6.55;;;4.20;;
59418;SDS011;45224;50.904;6.038;2023-09-08T02:43:46;6.60;;;4.53;;
59418;SDS011;45224;50.904;6.038;2023-09-08T02:45:17;6.25;;;4.05;;
59418;SDS011;45224;50.904;6.038;2023-09-08T02:46:48;5.82;;;4.22;;
59418;SDS011;45224;50.904;6.038;2023-09-08T02:48:18;5.28;;;4.18;;
59418;SDS011;45224;50.904;6.038;2023-09-08T02:49:49;8.40;;;4.50;;
59418;SDS011;45224;50.904;6.038;2023-09-08T02:51:20;5.35;;;4.30;;
59418;SDS011;45224;50.904;6.038;2023-09-08T02:52:50;5.30;;;4.00;;
59418;SDS011;45224;50.904;6.038;2023-09-08T02:54:21;5.53;;;4.28;;
59418;SDS011;45224;50.904;6.038;2023-09-08T02:55:51;5.25;;;3.90;;
59418;SDS011;45224;50.904;6.038;2023-09-08T02:57:22;5.45;;;3.90;;
59418;SDS011;45224;50.904;6.038;2023-09-08T02:58:52;5.68;;;4.10;;
59418;SDS011;45224;50.904;6.038;2023-09-08T03:00:23;6.15;;;4.30;;
59418;SDS011;45224;50.904;6.038;2023-09-08T03:01:54;5.50;;;4.18;;
59418;SDS011;45224;50.904;6.038;2023-09-08T03:03:27;4.97;;;3.78;;
59418;SDS011;45224;50.904;6.038;2023-09-08T03:04:58;7.55;;;4.03;;
59418;SDS011;45224;50.904;6.038;2023-09-08T03:06:28;6.35;;;4.10;;
59418;SDS011;45224;50.904;6.038;2023-09-08T03:07:59;8.98;;;4.15;;
59418;SDS011;45224;50.904;6.038;2023-09-08T03:09:30;6.63;;;4.57;;
59418;SDS011;45224;50.904;6.038;2023-09-08T03:11:01;5.50;;;4.00;;
59418;SDS011;45224;50.904;6.038;2023-09-08T03:12:31;6.45;;;4.07;;
59418;SDS011;45224;50.904;6.038;2023-09-08T03:14:02;5.47;;;4.22;;
59418;SDS011;45224;50.904;6.038;2023-09-08T03:15:34;5.13;;;3.78;;
59418;SDS011;45224;50.904;6.038;2023-09-08T03:17:05;4.97;;;4.15;;
59418;SDS011;45224;50.904;6.038;2023-09-08T03:18:36;5.38;;;4.13;;
59418;SDS011;45224;50.904;6.038;2023-09-08T03:20:07;5.80;;;4.30;;
59418;SDS011;45224;50.904;6.038;2023-09-08T03:21:40;4.38;;;3.78;;
59418;SDS011;45224;50.904;6.038;2023-09-08T03:23:11;4.57;;;3.90;;
59418;SDS011;45224;50.904;6.038;2023-09-08T03:24:41;4.72;;;3.95;;
59418;SDS011;45224;50.904;6.038;2023-09-08T03:26:12;4.70;;;3.78;;
59418;SDS011;45224;50.904;6.038;2023-09-08T03:27:43;6.53;;;3.85;;
59418;SDS011;45224;50.904;6.038;2023-09-08T03:29:13;8.77;;;3.97;;
59418;SDS011;45224;50.904;6.038;2023-09-08T03:30:44;7.22;;;3.80;;
59418;SDS011;45224;50.904;6.038;2023-09-08T03:32:15;7.10;;;4.05;;
59418;SDS011;45224;50.904;6.038;2023-09-08T03:33:45;6.13;;;3.92;;
59418;SDS011;45224;50.904;6.038;2023-09-08T03:35:16;5.00;;;3.90;;
59418;SDS011;45224;50.904;6.038;2023-09-08T03:36:46;5.35;;;4.00;;
59418;SDS011;45224;50.904;6.038;2023-09-08T03:38:17;5.28;;;4.32;;
59418;SDS011;45224;50.904;6.038;2023-09-08T03:39:48;4.95;;;3.80;;
59418;SDS011;45224;50.904;6.038;2023-09-08T03:41:18;6.00;;;4.10;;
59418;SDS011;45224;50.904;6.038;2023-09-08T03:42:49;5.20;;;3.90;;
59418;SDS011;45224;50.904;6.038;2023-09-08T03:44:20;5.38;;;4.10;;
59418;SDS011;45224;50.904;6.038;2023-09-08T03:45:51;6.80;;;3.95;;
59418;SDS011;45224;50.904;6.038;2023-09-08T03:47:21;7.47;;;3.95;;
59418;SDS011;45224;50.904;6.038;2023-09-08T03:48:52;5.22;;;4.35;;
59418;SDS011;45224;50.904;6.038;2023-09-08T03:50:29;5.82;;;3.97;;
59418;SDS011;45224;50.904;6.038;2023-09-08T03:52:00;4.50;;;3.75;;
59418;SDS011;45224;50.904;6.038;2023-09-08T03:53:31;5.28;;;4.10;;
59418;SDS011;45224;50.904;6.038;2023-09-08T03:55:02;5.50;;;4.22;;
59418;SDS011;45224;50.904;6.038;2023-09-08T03:56:32;4.70;;;3.90;;
59418;SDS011;45224;50.904;6.038;2023-09-08T03:58:03;4.50;;;3.78;;
59418;SDS011;45224;50.904;6.038;2023-09-08T03:59:34;6.85;;;4.75;;
59418;SDS011;45224;50.904;6.038;2023-09-08T04:01:04;5.47;;;4.25;;
59418;SDS011;45224;50.904;6.038;2023-09-08T04:02:34;7.15;;;4.43;;
59418;SDS011;45224;50.904;6.038;2023-09-08T04:04:05;5.82;;;4.45;;
59418;SDS011;45224;50.904;6.038;2023-09-08T04:05:36;6.65;;;4.07;;
59418;SDS011;45224;50.904;6.038;2023-09-08T04:07:06;5.75;;;4.40;;
59418;SDS011;45224;50.904;6.038;2023-09-08T04:08:37;6.22;;;4.70;;
59418;SDS011;45224;50.904;6.038;2023-09-08T04:10:08;5.60;;;4.40;;
59418;SDS011;45224;50.904;6.038;2023-09-08T04:11:38;6.60;;;4.13;;
59418;SDS011;45224;50.904;6.038;2023-09-08T04:13:09;5.53;;;4.53;;
59418;SDS011;45224;50.904;6.038;2023-09-08T04:14:39;6.78;;;4.38;;
59418;SDS011;45224;50.904;6.038;2023-09-08T04:16:10;7.43;;;4.43;;
59418;SDS011;45224;50.904;6.038;2023-09-08T04:17:41;6.55;;;4.07;;
59418;SDS011;45224;50.904;6.038;2023-09-08T04:19:11;5.70;;;4.13;;
59418;SDS011;45224;50.904;6.038;2023-09-08T04:20:42;5.85;;;4.43;;
59418;SDS011;45224;50.904;6.038;2023-09-08T04:22:13;4.88;;;4.10;;
59418;SDS011;45224;50.904;6.038;2023-09-08T04:23:44;6.20;;;4.18;;
59418;SDS011;45224;50.904;6.038;2023-09-08T04:25:14;5.45;;;4.38;;
59418;SDS011;45224;50.904;6.038;2023-09-08T04:26:45;4.95;;;4.22;;
59418;SDS011;45224;50.904;6.038;2023-09-08T04:28:17;6.68;;;3.92;;
59418;SDS011;45224;50.904;6.038;2023-09-08T04:29:47;6.90;;;4.05;;
59418;SDS011;45224;50.904;6.038;2023-09-08T04:31:18;4.65;;;3.90;;
59418;SDS011;45224;50.904;6.038;2023-09-08T04:32:49;6.88;;;4.53;;
59418;SDS011;45224;50.904;6.038;2023-09-08T04:34:20;5.43;;;4.22;;
59418;SDS011;45224;50.904;6.038;2023-09-08T04:35:50;6.28;;;4.32;;
59418;SDS011;45224;50.904;6.038;2023-09-08T04:37:21;6.28;;;4.13;;
59418;SDS011;45224;50.904;6.038;2023-09-08T04:38:51;5.70;;;4.47;;
59418;SDS011;45224;50.904;6.038;2023-09-08T04:40:22;8.02;;;4.68;;
59418;SDS011;45224;50.904;6.038;2023-09-08T04:41:52;7.18;;;4.32;;
59418;SDS011;45224;50.904;6.038;2023-09-08T04:43:23;5.18;;;4.32;;
59418;SDS011;45224;50.904;6.038;2023-09-08T04:44:54;6.28;;;4.50;;
59418;SDS011;45224;50.904;6.038;2023-09-08T04:46:24;6.00;;;4.40;;
59418;SDS011;45224;50.904;6.038;2023-09-08T04:47:55;6.65;;;4.70;;
59418;SDS011;45224;50.904;6.038;2023-09-08T04:49:25;8.32;;;4.65;;
59418;SDS011;45224;50.904;6.038;2023-09-08T04:50:56;5.28;;;4.28;;
59418;SDS011;45224;50.904;6.038;2023-09-08T04:52:27;6.13;;;4.22;;
59418;SDS011;45224;50.904;6.038;2023-09-08T04:53:58;7.15;;;4.53;;
59418;SDS011;45224;50.904;6.038;2023-09-08T04:55:29;7.78;;;4.78;;
59418;SDS011;45224;50.904;6.038;2023-09-08T04:56:59;6.25;;;4.50;;
59418;SDS011;45224;50.904;6.038;2023-09-08T04:58:30;8.43;;;4.32;;
59418;SDS011;45224;50.904;6.038;2023-09-08T05:00:01;6.35;;;4.63;;
59418;SDS011;45224;50.904;6.038;2023-09-08T05:01:33;6.72;;;4.88;;
59418;SDS011;45224;50.904;6.038;2023-09-08T05:03:06;5.18;;;4.68;;
59418;SDS011;45224;50.904;6.038;2023-09-08T05:04:38;8.07;;;4.57;;
59418;SDS011;45224;50.904;6.038;2023-09-08T05:06:08;6.90;;;4.88;;
59418;SDS011;45224;50.904;6.038;2023-09-08T05:07:39;6.13;;;4.38;;
59418;SDS011;45224;50.904;6.038;2023-09-08T05:09:09;6.30;;;4.45;;
59418;SDS011;45224;50.904;6.038;2023-09-08T05:10:40;6.05;;;4.70;;
59418;SDS011;45224;50.904;6.038;2023-09-08T05:12:11;5.80;;;4.57;;
59418;SDS011;45224;50.904;6.038;2023-09-08T05:13:41;5.45;;;4.28;;
59418;SDS011;45224;50.904;6.038;2023-09-08T05:15:12;8.30;;;4.75;;
59418;SDS011;45224;50.904;6.038;2023-09-08T05:16:48;5.85;;;4.63;;
59418;SDS011;45224;50.904;6.038;2023-09-08T05:18:26;5.32;;;4.45;;
59418;SDS011;45224;50.904;6.038;2023-09-08T05:19:58;6.32;;;4.55;;
59418;SDS011;45224;50.904;6.038;2023-09-08T05:21:28;6.40;;;4.70;;
59418;SDS011;45224;50.904;6.038;2023-09-08T05:22:59;7.13;;;4.90;;
59418;SDS011;45224;50.904;6.038;2023-09-08T05:24:30;8.57;;;4.63;;
59418;SDS011;45224;50.904;6.038;2023-09-08T05:26:01;8.00;;;4.22;;
59418;SDS011;45224;50.904;6.038;2023-09-08T05:27:32;7.30;;;4.90;;
59418;SDS011;45224;50.904;6.038;2023-09-08T05:29:03;5.88;;;4.07;;
59418;SDS011;45224;50.904;6.038;2023-09-08T05:30:34;6.88;;;4.38;;
59418;SDS011;45224;50.904;6.038;2023-09-08T05:32:04;6.32;;;4.47;;
59418;SDS011;45224;50.904;6.038;2023-09-08T05:33:35;9.07;;;4.80;;
59418;SDS011;45224;50.904;6.038;2023-09-08T05:35:06;7.13;;;4.60;;
59418;SDS011;45224;50.904;6.038;2023-09-08T05:36:37;8.13;;;5.20;;
59418;SDS011;45224;50.904;6.038;2023-09-08T05:38:11;8.52;;;4.40;;
59418;SDS011;45224;50.904;6.038;2023-09-08T05:39:42;6.25;;;4.43;;
59418;SDS011;45224;50.904;6.038;2023-09-08T05:41:12;9.43;;;4.88;;
59418;SDS011;45224;50.904;6.038;2023-09-08T05:42:43;7.25;;;4.90;;
59418;SDS011;45224;50.904;6.038;2023-09-08T05:44:14;6.93;;;4.88;;
59418;SDS011;45224;50.904;6.038;2023-09-08T05:45:45;5.93;;;4.38;;
59418;SDS011;45224;50.904;6.038;2023-09-08T05:47:15;7.10;;;4.45;;
59418;SDS011;45224;50.904;6.038;2023-09-08T05:48:46;8.23;;;4.53;;
59418;SDS011;45224;50.904;6.038;2023-09-08T05:50:18;5.75;;;4.10;;
59418;SDS011;45224;50.904;6.038;2023-09-08T05:51:48;7.82;;;4.18;;
59418;SDS011;45224;50.904;6.038;2023-09-08T05:53:19;6.95;;;3.95;;
59418;SDS011;45224;50.904;6.038;2023-09-08T05:54:50;5.90;;;4.30;;
59418;SDS011;45224;50.904;6.038;2023-09-08T05:56:20;5.97;;;4.10;;
59418;SDS011;45224;50.904;6.038;2023-09-08T05:57:54;6.60;;;4.20;;
59418;SDS011;45224;50.904;6.038;2023-09-08T05:59:25;6.88;;;4.43;;
59418;SDS011;45224;50.904;6.038;2023-09-08T06:00:55;5.25;;;4.13;;
59418;SDS011;45224;50.904;6.038;2023-09-08T06:02:26;6.45;;;4.05;;
59418;SDS011;45224;50.904;6.038;2023-09-08T06:03:56;6.05;;;4.05;;
59418;SDS011;45224;50.904;6.038;2023-09-08T06:05:28;6.55;;;4.18;;
59418;SDS011;45224;50.904;6.038;2023-09-08T06:06:59;6.28;;;3.92;;
59418;SDS011;45224;50.904;6.038;2023-09-08T06:08:29;8.70;;;4.03;;
59418;SDS011;45224;50.904;6.038;2023-09-08T06:10:00;5.45;;;3.70;;
59418;SDS011;45224;50.904;6.038;2023-09-08T06:11:31;6.78;;;4.20;;
59418;SDS011;45224;50.904;6.038;2023-09-08T06:13:01;5.13;;;3.95;;
59418;SDS011;45224;50.904;6.038;2023-09-08T06:14:32;5.55;;;4.05;;
59418;SDS011;45224;50.904;6.038;2023-09-08T06:16:03;5.55;;;3.95;;
59418;SDS011;45224;50.904;6.038;2023-09-08T06:17:34;5.43;;;3.80;;
59418;SDS011;45224;50.904;6.038;2023-09-08T06:19:05;8.43;;;3.90;;
59418;SDS011;45224;50.904;6.038;2023-09-08T06:20:35;6.95;;;3.65;;
59418;SDS011;45224;50.904;6.038;2023-09-08T06:22:06;6.47;;;5.10;;
59418;SDS011;45224;50.904;6.038;2023-09-08T06:23:37;5.95;;;4.45;;
59418;SDS011;45224;50.904;6.038;2023-09-08T06:25:07;5.60;;;3.88;;
59418;SDS011;45224;50.904;6.038;2023-09-08T06:26:39;6.63;;;4.20;;
59418;SDS011;45224;50.904;6.038;2023-09-08T06:28:10;5.18;;;3.78;;
59418;SDS011;45224;50.904;6.038;2023-09-08T06:29:41;8.75;;;5.70;;
59418;SDS011;45224;50.904;6.038;2023-09-08T06:31:15;5.70;;;4.35;;
59418;SDS011;45224;50.904;6.038;2023-09-08T06:32:47;5.70;;;4.03;;
59418;SDS011;45224;50.904;6.038;2023-09-08T06:34:17;9.80;;;5.20;;
59418;SDS011;45224;50.904;6.038;2023-09-08T06:35:51;6.63;;;4.13;;
59418;SDS011;45224;50.904;6.038;2023-09-08T06:37:24;4.45;;;3.67;;
59418;SDS011;45224;50.904;6.038;2023-09-08T06:38:55;4.68;;;3.75;;
59418;SDS011;45224;50.904;6.038;2023-09-08T06:40:25;9.25;;;3.97;;
59418;SDS011;45224;50.904;6.038;2023-09-08T06:41:56;5.78;;;3.70;;
59418;SDS011;45224;50.904;6.038;2023-09-08T06:43:27;5.07;;;3.42;;
59418;SDS011;45224;50.904;6.038;2023-09-08T06:45:06;7.25;;;3.92;;
59418;SDS011;45224;50.904;6.038;2023-09-08T06:46:37;5.43;;;3.95;;
59418;SDS011;45224;50.904;6.038;2023-09-08T06:48:08;6.72;;;3.83;;
59418;SDS011;45224;50.904;6.038;2023-09-08T06:49:38;8.15;;;3.78;;
59418;SDS011;45224;50.904;6.038;2023-09-08T06:51:09;6.20;;;3.92;;
59418;SDS011;45224;50.904;6.038;2023-09-08T06:52:42;7.60;;;4.43;;
59418;SDS011;45224;50.904;6.038;2023-09-08T06:54:12;7.63;;;3.72;;
59418;SDS011;45224;50.904;6.038;2023-09-08T06:55:46;6.07;;;3.65;;
59418;SDS011;45224;50.904;6.038;2023-09-08T06:57:18;9.57;;;3.78;;
59418;SDS011;45224;50.904;6.038;2023-09-08T06:58:50;5.47;;;3.72;;
59418;SDS011;45224;50.904;6.038;2023-09-08T07:00:21;8.70;;;4.20;;
59418;SDS011;45224;50.904;6.038;2023-09-08T07:01:51;7.43;;;4.00;;
59418;SDS011;45224;50.904;6.038;2023-09-08T07:03:23;7.88;;;3.78;;
59418;SDS011;45224;50.904;6.038;2023-09-08T07:04:54;5.30;;;3.75;;
59418;SDS011;45224;50.904;6.038;2023-09-08T07:06:25;5.63;;;3.70;;
59418;SDS011;45224;50.904;6.038;2023-09-08T07:07:56;7.57;;;4.10;;
59418;SDS011;45224;50.904;6.038;2023-09-08T07:09:26;7.07;;;3.75;;
59418;SDS011;45224;50.904;6.038;2023-09-08T07:10:57;6.93;;;3.70;;
59418;SDS011;45224;50.904;6.038;2023-09-08T07:12:27;12.73;;;3.95;;
59418;SDS011;45224;50.904;6.038;2023-09-08T07:13:58;6.80;;;3.80;;
59418;SDS011;45224;50.904;6.038;2023-09-08T07:15:29;8.10;;;3.65;;
59418;SDS011;45224;50.904;6.038;2023-09-08T07:16:59;6.82;;;3.70;;
59418;SDS011;45224;50.904;6.038;2023-09-08T07:18:30;9.95;;;3.80;;
59418;SDS011;45224;50.904;6.038;2023-09-08T07:20:05;6.40;;;3.40;;
59418;SDS011;45224;50.904;6.038;2023-09-08T07:21:36;8.35;;;4.03;;
59418;SDS011;45224;50.904;6.038;2023-09-08T07:23:07;11.25;;;3.67;;
59418;SDS011;45224;50.904;6.038;2023-09-08T07:24:37;6.38;;;3.50;;
59418;SDS011;45224;50.904;6.038;2023-09-08T07:26:08;6.07;;;3.60;;
59418;SDS011;45224;50.904;6.038;2023-09-08T07:27:39;8.95;;;4.07;;
59418;SDS011;45224;50.904;6.038;2023-09-08T07:29:10;8.05;;;4.00;;
59418;SDS011;45224;50.904;6.038;2023-09-08T07:30:42;4.95;;;3.47;;
59418;SDS011;45224;50.904;6.038;2023-09-08T07:32:13;7.07;;;3.80;;
59418;SDS011;45224;50.904;6.038;2023-09-08T07:33:44;6.07;;;3.80;;
59418;SDS011;45224;50.904;6.038;2023-09-08T07:35:15;5.82;;;3.88;;
59418;SDS011;45224;50.904;6.038;2023-09-08T07:36:48;5.50;;;3.85;;
59418;SDS011;45224;50.904;6.038;2023-09-08T07:38:19;7.03;;;4.43;;
59418;SDS011;45224;50.904;6.038;2023-09-08T07:39:50;6.60;;;3.85;;
59418;SDS011;45224;50.904;6.038;2023-09-08T07:41:22;5.85;;;3.45;;
59418;SDS011;45224;50.904;6.038;2023-09-08T07:42:53;5.47;;;3.80;;
59418;SDS011;45224;50.904;6.038;2023-09-08T07:44:24;7.65;;;3.83;;
59418;SDS011;45224;50.904;6.038;2023-09-08T07:45:55;6.18;;;3.88;;
59418;SDS011;45224;50.904;6.038;2023-09-08T07:47:25;5.55;;;4.18;;
59418;SDS011;45224;50.904;6.038;2023-09-08T07:48:57;8.48;;;4.10;;
59418;SDS011;45224;50.904;6.038;2023-09-08T07:50:28;8.73;;;3.92;;
59418;SDS011;45224;50.904;6.038;2023-09-08T07:51:59;6.32;;;3.85;;
59418;SDS011;45224;50.904;6.038;2023-09-08T07:53:29;6.18;;;3.78;;
59418;SDS011;45224;50.904;6.038;2023-09-08T07:55:00;6.07;;;3.78;;
59418;SDS011;45224;50.904;6.038;2023-09-08T07:56:31;3.97;;;3.30;;
59418;SDS011;45224;50.904;6.038;2023-09-08T07:58:02;7.90;;;3.88;;
59418;SDS011;45224;50.904;6.038;2023-09-08T07:59:36;7.13;;;3.72;;
59418;SDS011;45224;50.904;6.038;2023-09-08T08:01:06;5.57;;;3.20;;
59418;SDS011;45224;50.904;6.038;2023-09-08T08:02:41;8.10;;;3.80;;
59418;SDS011;45224;50.904;6.038;2023-09-08T08:04:16;4.50;;;3.35;;
59418;SDS011;45224;50.904;6.038;2023-09-08T08:05:46;5.70;;;3.20;;
59418;SDS011;45224;50.904;6.038;2023-09-08T08:07:17;5.95;;;3.40;;
59418;SDS011;45224;50.904;6.038;2023-09-08T08:08:47;5.88;;;3.60;;
59418;SDS011;45224;50.904;6.038;2023-09-08T08:10:18;5.72;;;3.40;;
59418;SDS011;45224;50.904;6.038;2023-09-08T08:11:49;5.10;;;3.15;;
59418;SDS011;45224;50.904;6.038;2023-09-08T08:13:20;4.72;;;3.40;;
59418;SDS011;45224;50.904;6.038;2023-09-08T08:14:51;4.25;;;3.03;;
59418;SDS011;45224;50.904;6.038;2023-09-08T08:16:22;4.95;;;3.13;;
59418;SDS011;45224;50.904;6.038;2023-09-08T08:17:52;4.28;;;3.42;;
59418;SDS011;45224;50.904;6.038;2023-09-08T08:19:23;6.35;;;3.38;;
59418;SDS011;45224;50.904;6.038;2023-09-08T08:20:53;5.30;;;2.95;;
59418;SDS011;45224;50.904;6.038;2023-09-08T08:22:24;6.68;;;3.45;;
59418;SDS011;45224;50.904;6.038;2023-09-08T08:23:55;4.97;;;3.15;;
59418;SDS011;45224;50.904;6.038;2023-09-08T08:25:26;6.47;;;3.78;;
59418;SDS011;45224;50.904;6.038;2023-09-08T08:26:56;4.32;;;3.22;;
59418;SDS011;45224;50.904;6.038;2023-09-08T08:28:27;5.75;;;3.20;;
59418;SDS011;45224;50.904;6.038;2023-09-08T08:29:57;5.43;;;3.28;;
59418;SDS011;45224;50.904;6.038;2023-09-08T08:31:30;5.15;;;3.30;;
59418;SDS011;45224;50.904;6.038;2023-09-08T08:33:01;5.03;;;3.05;;
59418;SDS011;45224;50.904;6.038;2023-09-08T08:34:32;5.93;;;3.28;;
59418;SDS011;45224;50.904;6.038;2023-09-08T08:36:02;5.68;;;3.50;;
59418;SDS011;45224;50.904;6.038;2023-09-08T08:37:33;4.57;;;3.17;;
59418;SDS011;45224;50.904;6.038;2023-09-08T08:39:04;5.25;;;3.20;;
59418;SDS011;45224;50.904;6.038;2023-09-08T08:40:37;8.85;;;3.75;;
59418;SDS011;45224;50.904;6.038;2023-09-08T08:42:11;8.73;;;4.03;;
59418;SDS011;45224;50.904;6.038;2023-09-08T08:43:42;5.10;;;3.60;;
59418;SDS011;45224;50.904;6.038;2023-09-08T08:45:14;7.38;;;3.67;;
59418;SDS011;45224;50.904;6.038;2023-09-08T08:46:49;5.18;;;3.78;;
59418;SDS011;45224;50.904;6.038;2023-09-08T08:48:20;7.60;;;3.70;;
59418;SDS011;45224;50.904;6.038;2023-09-08T08:49:51;5.18;;;3.25;;
59418;SDS011;45224;50.904;6.038;2023-09-08T08:51:25;6.78;;;3.58;;
59418;SDS011;45224;50.904;6.038;2023-09-08T08:52:58;4.60;;;3.78;;
59418;SDS011;45224;50.904;6.038;2023-09-08T08:54:29;8.57;;;3.80;;
59418;SDS011;45224;50.904;6.038;2023-09-08T08:56:00;4.47;;;3.53;;
59418;SDS011;45224;50.904;6.038;2023-09-08T08:57:31;10.20;;;3.67;;
59418;SDS011;45224;50.904;6.038;2023-09-08T08:59:02;3.92;;;3.35;;
59418;SDS011;45224;50.904;6.038;2023-09-08T09:00:36;4.80;;;3.40;;
59418;SDS011;45224;50.904;6.038;2023-09-08T09:02:08;7.68;;;3.50;;
59418;SDS011;45224;50.904;6.038;2023-09-08T09:03:41;10.13;;;3.58;;
59418;SDS011;45224;50.904;6.038;2023-09-08T09:05:13;5.57;;;3.22;;
59418;SDS011;45224;50.904;6.038;2023-09-08T09:06:44;4.68;;;3.47;;
59418;SDS011;45224;50.904;6.038;2023-09-08T09:08:16;4.18;;;2.88;;
59418;SDS011;45224;50.904;6.038;2023-09-08T09:09:47;5.85;;;3.40;;
59418;SDS011;45224;50.904;6.038;2023-09-08T09:11:18;7.20;;;3.17;;
59418;SDS011;45224;50.904;6.038;2023-09-08T09:12:48;5.63;;;2.88;;
59418;SDS011;45224;50.904;6.038;2023-09-08T09:14:19;8.00;;;3.00;;